Terminal Aerodrome Forecast
Issued by NWS

Home | Current Version | Previous Version | Text Only | Print | Product List | Glossary On
Versions: 1 2 3 4 5 6 7 8 9 10 11 12 13 14 15 16 17
000
FTUS41 KGYX 292320
TAFRKD
TAF
KRKD 292320Z 3000/3024 20006KT P6SM SKC
     FM300100 20003KT P6SM OVC100
     FM300200 22003KT 4SM BR OVC100
     FM300300 24003KT 1SM BR OVC050
     FM301100 33002KT P6SM BKN100
     FM301300 18005KT P6SM BKN250
      AMD LTD TO CLD VIS AND WIND=

USA.gov is the U.S. government's official web portal to all federal, state and local government web resources and services.